sensor_id;sensor_type;location;lat;lon;timestamp;P1;durP1;ratioP1;P2;durP2;ratioP2
38208;SDS011;24016;52.102;11.584;2023-05-29T00:01:52;11.35;;;4.82;;
38208;SDS011;24016;52.102;11.584;2023-05-29T00:04:17;6.97;;;4.10;;
38208;SDS011;24016;52.102;11.584;2023-05-29T00:06:43;6.30;;;3.85;;
38208;SDS011;24016;52.102;11.584;2023-05-29T00:09:09;7.20;;;4.00;;
38208;SDS011;24016;52.102;11.584;2023-05-29T00:11:35;9.45;;;4.43;;
38208;SDS011;24016;52.102;11.584;2023-05-29T00:14:01;11.05;;;4.95;;
38208;SDS011;24016;52.102;11.584;2023-05-29T00:16:26;7.55;;;4.30;;
38208;SDS011;24016;52.102;11.584;2023-05-29T00:18:55;8.82;;;4.28;;
38208;SDS011;24016;52.102;11.584;2023-05-29T00:21:20;7.80;;;4.00;;
38208;SDS011;24016;52.102;11.584;2023-05-29T00:23:49;9.73;;;4.35;;
38208;SDS011;24016;52.102;11.584;2023-05-29T00:26:15;7.13;;;4.20;;
38208;SDS011;24016;52.102;11.584;2023-05-29T00:28:41;8.20;;;4.20;;
38208;SDS011;24016;52.102;11.584;2023-05-29T00:31:07;8.88;;;4.28;;
38208;SDS011;24016;52.102;11.584;2023-05-29T00:33:33;11.38;;;4.60;;
38208;SDS011;24016;52.102;11.584;2023-05-29T00:35:58;12.75;;;5.03;;
38208;SDS011;24016;52.102;11.584;2023-05-29T00:38:26;5.90;;;3.60;;
38208;SDS011;24016;52.102;11.584;2023-05-29T00:40:52;7.68;;;4.07;;
38208;SDS011;24016;52.102;11.584;2023-05-29T00:43:18;11.98;;;4.75;;
38208;SDS011;24016;52.102;11.584;2023-05-29T00:45:43;7.82;;;4.22;;
38208;SDS011;24016;52.102;11.584;2023-05-29T00:48:09;7.30;;;4.30;;
38208;SDS011;24016;52.102;11.584;2023-05-29T00:50:35;7.93;;;4.20;;
38208;SDS011;24016;52.102;11.584;2023-05-29T00:53:00;6.50;;;3.80;;
38208;SDS011;24016;52.102;11.584;2023-05-29T00:55:27;9.73;;;4.38;;
38208;SDS011;24016;52.102;11.584;2023-05-29T00:57:54;8.48;;;4.28;;
38208;SDS011;24016;52.102;11.584;2023-05-29T01:00:20;5.90;;;3.97;;
38208;SDS011;24016;52.102;11.584;2023-05-29T01:05:32;9.93;;;4.00;;
38208;SDS011;24016;52.102;11.584;2023-05-29T01:07:59;7.85;;;4.15;;
38208;SDS011;24016;52.102;11.584;2023-05-29T01:10:25;7.07;;;4.03;;
38208;SDS011;24016;52.102;11.584;2023-05-29T01:20:50;9.32;;;4.45;;
38208;SDS011;24016;52.102;11.584;2023-05-29T01:26:19;8.35;;;4.05;;
38208;SDS011;24016;52.102;11.584;2023-05-29T01:28:48;9.82;;;4.32;;
38208;SDS011;24016;52.102;11.584;2023-05-29T01:36:27;9.98;;;4.63;;
38208;SDS011;24016;52.102;11.584;2023-05-29T01:38:54;9.60;;;4.75;;
38208;SDS011;24016;52.102;11.584;2023-05-29T01:41:21;10.95;;;4.90;;
38208;SDS011;24016;52.102;11.584;2023-05-29T01:43:48;8.88;;;4.40;;
38208;SDS011;24016;52.102;11.584;2023-05-29T01:46:15;7.30;;;4.10;;
38208;SDS011;24016;52.102;11.584;2023-05-29T01:48:41;8.30;;;4.38;;
38208;SDS011;24016;52.102;11.584;2023-05-29T01:51:08;7.72;;;4.25;;
38208;SDS011;24016;52.102;11.584;2023-05-29T01:53:35;8.30;;;3.90;;
38208;SDS011;24016;52.102;11.584;2023-05-29T01:56:01;8.82;;;4.75;;
38208;SDS011;24016;52.102;11.584;2023-05-29T01:58:27;9.70;;;4.95;;
38208;SDS011;24016;52.102;11.584;2023-05-29T02:00:55;9.98;;;5.00;;
38208;SDS011;24016;52.102;11.584;2023-05-29T02:03:21;10.57;;;4.20;;
38208;SDS011;24016;52.102;11.584;2023-05-29T02:05:47;8.30;;;5.05;;
38208;SDS011;24016;52.102;11.584;2023-05-29T02:08:12;16.33;;;11.10;;
38208;SDS011;24016;52.102;11.584;2023-05-29T02:10:38;18.13;;;11.18;;
38208;SDS011;24016;52.102;11.584;2023-05-29T02:13:04;16.52;;;9.27;;
38208;SDS011;24016;52.102;11.584;2023-05-29T02:15:30;12.57;;;6.47;;
38208;SDS011;24016;52.102;11.584;2023-05-29T02:17:55;11.82;;;5.97;;
38208;SDS011;24016;52.102;11.584;2023-05-29T02:20:22;9.60;;;6.43;;
38208;SDS011;24016;52.102;11.584;2023-05-29T02:22:48;9.38;;;5.75;;
38208;SDS011;24016;52.102;11.584;2023-05-29T02:25:14;8.80;;;5.90;;
38208;SDS011;24016;52.102;11.584;2023-05-29T02:27:39;9.23;;;5.57;;
38208;SDS011;24016;52.102;11.584;2023-05-29T02:30:05;10.55;;;5.55;;
38208;SDS011;24016;52.102;11.584;2023-05-29T02:32:31;11.65;;;5.63;;
38208;SDS011;24016;52.102;11.584;2023-05-29T02:34:57;11.48;;;5.47;;
38208;SDS011;24016;52.102;11.584;2023-05-29T02:37:23;10.18;;;5.72;;
38208;SDS011;24016;52.102;11.584;2023-05-29T02:39:50;9.73;;;5.30;;
38208;SDS011;24016;52.102;11.584;2023-05-29T02:42:16;9.10;;;5.30;;
38208;SDS011;24016;52.102;11.584;2023-05-29T02:44:42;10.10;;;5.22;;
38208;SDS011;24016;52.102;11.584;2023-05-29T02:47:08;7.63;;;5.07;;
38208;SDS011;24016;52.102;11.584;2023-05-29T02:49:34;9.38;;;5.30;;
38208;SDS011;24016;52.102;11.584;2023-05-29T02:51:59;7.47;;;4.47;;
38208;SDS011;24016;52.102;11.584;2023-05-29T02:54:25;10.68;;;5.22;;
38208;SDS011;24016;52.102;11.584;2023-05-29T02:56:51;8.70;;;4.65;;
38208;SDS011;24016;52.102;11.584;2023-05-29T02:59:17;7.80;;;4.72;;
38208;SDS011;24016;52.102;11.584;2023-05-29T03:01:43;13.15;;;4.88;;
38208;SDS011;24016;52.102;11.584;2023-05-29T03:04:11;7.47;;;4.78;;
38208;SDS011;24016;52.102;11.584;2023-05-29T03:06:37;9.75;;;4.97;;
38208;SDS011;24016;52.102;11.584;2023-05-29T03:09:03;9.73;;;5.10;;
38208;SDS011;24016;52.102;11.584;2023-05-29T03:11:30;10.75;;;4.95;;
38208;SDS011;24016;52.102;11.584;2023-05-29T03:13:56;7.90;;;4.80;;
38208;SDS011;24016;52.102;11.584;2023-05-29T03:16:21;8.38;;;4.68;;
38208;SDS011;24016;52.102;11.584;2023-05-29T03:18:47;8.18;;;4.72;;
38208;SDS011;24016;52.102;11.584;2023-05-29T03:21:13;7.85;;;4.60;;
38208;SDS011;24016;52.102;11.584;2023-05-29T03:23:38;7.68;;;5.00;;
38208;SDS011;24016;52.102;11.584;2023-05-29T03:26:04;7.32;;;4.50;;
38208;SDS011;24016;52.102;11.584;2023-05-29T03:28:30;9.93;;;4.90;;
38208;SDS011;24016;52.102;11.584;2023-05-29T03:30:56;6.75;;;4.88;;
38208;SDS011;24016;52.102;11.584;2023-05-29T03:33:22;8.00;;;4.50;;
38208;SDS011;24016;52.102;11.584;2023-05-29T03:35:48;8.38;;;4.60;;
38208;SDS011;24016;52.102;11.584;2023-05-29T03:38:14;7.20;;;4.72;;
38208;SDS011;24016;52.102;11.584;2023-05-29T03:40:39;7.32;;;4.60;;
38208;SDS011;24016;52.102;11.584;2023-05-29T03:43:05;8.45;;;4.45;;
38208;SDS011;24016;52.102;11.584;2023-05-29T03:45:31;7.72;;;4.90;;
38208;SDS011;24016;52.102;11.584;2023-05-29T03:47:56;6.55;;;4.55;;
38208;SDS011;24016;52.102;11.584;2023-05-29T03:50:22;6.75;;;4.53;;
38208;SDS011;24016;52.102;11.584;2023-05-29T03:52:47;9.52;;;4.95;;
38208;SDS011;24016;52.102;11.584;2023-05-29T03:55:13;6.82;;;4.45;;
38208;SDS011;24016;52.102;11.584;2023-05-29T03:57:39;6.90;;;4.68;;
38208;SDS011;24016;52.102;11.584;2023-05-29T04:00:09;6.70;;;4.43;;
38208;SDS011;24016;52.102;11.584;2023-05-29T04:02:36;7.72;;;4.25;;
38208;SDS011;24016;52.102;11.584;2023-05-29T04:05:06;6.45;;;3.83;;
38208;SDS011;24016;52.102;11.584;2023-05-29T04:07:33;10.43;;;4.43;;
38208;SDS011;24016;52.102;11.584;2023-05-29T04:10:02;9.27;;;4.30;;
38208;SDS011;24016;52.102;11.584;2023-05-29T04:12:27;7.70;;;4.43;;
38208;SDS011;24016;52.102;11.584;2023-05-29T04:14:53;8.68;;;4.40;;
38208;SDS011;24016;52.102;11.584;2023-05-29T04:17:19;7.32;;;4.22;;
38208;SDS011;24016;52.102;11.584;2023-05-29T04:19:44;8.27;;;4.55;;
38208;SDS011;24016;52.102;11.584;2023-05-29T04:22:10;8.93;;;4.55;;
38208;SDS011;24016;52.102;11.584;2023-05-29T04:24:36;7.28;;;4.03;;
38208;SDS011;24016;52.102;11.584;2023-05-29T04:27:01;7.32;;;4.35;;
38208;SDS011;24016;52.102;11.584;2023-05-29T04:29:28;7.55;;;3.75;;
38208;SDS011;24016;52.102;11.584;2023-05-29T04:31:54;12.40;;;4.47;;
38208;SDS011;24016;52.102;11.584;2023-05-29T04:34:20;7.63;;;4.30;;
38208;SDS011;24016;52.102;11.584;2023-05-29T04:36:46;7.35;;;4.00;;
38208;SDS011;24016;52.102;11.584;2023-05-29T04:39:12;13.88;;;4.18;;
38208;SDS011;24016;52.102;11.584;2023-05-29T04:41:39;7.30;;;4.38;;
38208;SDS011;24016;52.102;11.584;2023-05-29T04:44:05;6.47;;;3.97;;
38208;SDS011;24016;52.102;11.584;2023-05-29T04:46:32;5.60;;;3.70;;
38208;SDS011;24016;52.102;11.584;2023-05-29T04:48:59;6.03;;;3.97;;
38208;SDS011;24016;52.102;11.584;2023-05-29T04:51:28;5.90;;;3.90;;
38208;SDS011;24016;52.102;11.584;2023-05-29T04:53:55;6.78;;;3.88;;
38208;SDS011;24016;52.102;11.584;2023-05-29T04:56:21;7.22;;;3.88;;
38208;SDS011;24016;52.102;11.584;2023-05-29T04:58:47;6.53;;;3.97;;
38208;SDS011;24016;52.102;11.584;2023-05-29T05:01:13;6.47;;;3.53;;
38208;SDS011;24016;52.102;11.584;2023-05-29T05:03:42;7.65;;;4.32;;
38208;SDS011;24016;52.102;11.584;2023-05-29T05:06:08;9.50;;;4.10;;
38208;SDS011;24016;52.102;11.584;2023-05-29T05:08:34;6.32;;;3.88;;
38208;SDS011;24016;52.102;11.584;2023-05-29T05:11:00;9.73;;;3.50;;
38208;SDS011;24016;52.102;11.584;2023-05-29T05:13:26;6.20;;;3.50;;
38208;SDS011;24016;52.102;11.584;2023-05-29T05:15:51;9.00;;;3.72;;
38208;SDS011;24016;52.102;11.584;2023-05-29T05:18:17;7.72;;;3.25;;
38208;SDS011;24016;52.102;11.584;2023-05-29T05:20:43;6.95;;;3.78;;
38208;SDS011;24016;52.102;11.584;2023-05-29T05:23:09;5.30;;;3.40;;
38208;SDS011;24016;52.102;11.584;2023-05-29T05:25:35;5.97;;;3.70;;
38208;SDS011;24016;52.102;11.584;2023-05-29T05:28:01;6.55;;;3.38;;
38208;SDS011;24016;52.102;11.584;2023-05-29T05:30:28;6.68;;;3.60;;
38208;SDS011;24016;52.102;11.584;2023-05-29T05:32:54;7.05;;;3.60;;
38208;SDS011;24016;52.102;11.584;2023-05-29T05:35:20;6.55;;;3.15;;
38208;SDS011;24016;52.102;11.584;2023-05-29T05:37:46;9.02;;;3.60;;
38208;SDS011;24016;52.102;11.584;2023-05-29T05:40:11;6.22;;;3.20;;
38208;SDS011;24016;52.102;11.584;2023-05-29T05:42:37;6.32;;;3.90;;
38208;SDS011;24016;52.102;11.584;2023-05-29T05:45:03;6.15;;;3.30;;
38208;SDS011;24016;52.102;11.584;2023-05-29T05:47:31;5.30;;;3.20;;
38208;SDS011;24016;52.102;11.584;2023-05-29T05:49:57;6.53;;;3.40;;
38208;SDS011;24016;52.102;11.584;2023-05-29T05:52:23;6.50;;;3.30;;
38208;SDS011;24016;52.102;11.584;2023-05-29T05:54:49;5.88;;;3.20;;
38208;SDS011;24016;52.102;11.584;2023-05-29T05:57:15;4.90;;;3.25;;
38208;SDS011;24016;52.102;11.584;2023-05-29T05:59:41;5.75;;;3.05;;
38208;SDS011;24016;52.102;11.584;2023-05-29T06:02:06;8.07;;;3.60;;
38208;SDS011;24016;52.102;11.584;2023-05-29T06:04:32;5.50;;;3.50;;
38208;SDS011;24016;52.102;11.584;2023-05-29T06:06:57;6.07;;;3.88;;
38208;SDS011;24016;52.102;11.584;2023-05-29T06:09:23;6.85;;;4.00;;
38208;SDS011;24016;52.102;11.584;2023-05-29T06:11:50;5.15;;;3.33;;
38208;SDS011;24016;52.102;11.584;2023-05-29T06:14:15;9.02;;;3.83;;
38208;SDS011;24016;52.102;11.584;2023-05-29T06:16:41;8.30;;;3.60;;
38208;SDS011;24016;52.102;11.584;2023-05-29T06:19:07;6.68;;;3.58;;
38208;SDS011;24016;52.102;11.584;2023-05-29T06:21:36;5.75;;;3.47;;
38208;SDS011;24016;52.102;11.584;2023-05-29T06:24:02;6.55;;;3.50;;
38208;SDS011;24016;52.102;11.584;2023-05-29T06:26:28;5.32;;;3.50;;
38208;SDS011;24016;52.102;11.584;2023-05-29T06:28:53;5.38;;;3.22;;
38208;SDS011;24016;52.102;11.584;2023-05-29T06:31:19;5.80;;;3.50;;
38208;SDS011;24016;52.102;11.584;2023-05-29T06:33:45;4.60;;;3.08;;
38208;SDS011;24016;52.102;11.584;2023-05-29T06:36:11;5.95;;;3.22;;
38208;SDS011;24016;52.102;11.584;2023-05-29T06:38:37;5.90;;;3.30;;
38208;SDS011;24016;52.102;11.584;2023-05-29T06:41:03;6.10;;;3.60;;
38208;SDS011;24016;52.102;11.584;2023-05-29T06:43:29;7.65;;;3.47;;
38208;SDS011;24016;52.102;11.584;2023-05-29T06:45:54;5.70;;;3.42;;
38208;SDS011;24016;52.102;11.584;2023-05-29T06:48:20;5.43;;;3.50;;
38208;SDS011;24016;52.102;11.584;2023-05-29T06:50:45;6.45;;;3.13;;
38208;SDS011;24016;52.102;11.584;2023-05-29T06:53:12;8.38;;;3.60;;
38208;SDS011;24016;52.102;11.584;2023-05-29T06:55:37;7.95;;;3.17;;
38208;SDS011;24016;52.102;11.584;2023-05-29T06:58:05;9.05;;;3.15;;
38208;SDS011;24016;52.102;11.584;2023-05-29T07:00:31;5.20;;;3.20;;
38208;SDS011;24016;52.102;11.584;2023-05-29T07:02:56;5.57;;;2.80;;
38208;SDS011;24016;52.102;11.584;2023-05-29T07:05:22;6.72;;;3.20;;
38208;SDS011;24016;52.102;11.584;2023-05-29T07:07:48;4.15;;;2.67;;
38208;SDS011;24016;52.102;11.584;2023-05-29T07:10:14;6.15;;;3.17;;
38208;SDS011;24016;52.102;11.584;2023-05-29T07:12:40;4.80;;;2.72;;
38208;SDS011;24016;52.102;11.584;2023-05-29T07:15:05;7.55;;;3.30;;
38208;SDS011;24016;52.102;11.584;2023-05-29T07:17:31;6.63;;;3.10;;
38208;SDS011;24016;52.102;11.584;2023-05-29T07:19:57;5.35;;;2.75;;
38208;SDS011;24016;52.102;11.584;2023-05-29T07:22:23;5.57;;;3.05;;
38208;SDS011;24016;52.102;11.584;2023-05-29T07:24:48;7.28;;;3.22;;
38208;SDS011;24016;52.102;11.584;2023-05-29T07:27:14;3.90;;;2.70;;
38208;SDS011;24016;52.102;11.584;2023-05-29T07:29:39;6.05;;;3.10;;
38208;SDS011;24016;52.102;11.584;2023-05-29T07:32:05;5.75;;;2.97;;
38208;SDS011;24016;52.102;11.584;2023-05-29T07:34:30;5.53;;;3.15;;
38208;SDS011;24016;52.102;11.584;2023-05-29T07:36:57;5.78;;;2.85;;
38208;SDS011;24016;52.102;11.584;2023-05-29T07:39:24;5.72;;;3.10;;
38208;SDS011;24016;52.102;11.584;2023-05-29T07:41:50;5.85;;;2.42;;
38208;SDS011;24016;52.102;11.584;2023-05-29T07:44:16;4.55;;;2.70;;
38208;SDS011;24016;52.102;11.584;2023-05-29T07:46:42;5.40;;;3.20;;
38208;SDS011;24016;52.102;11.584;2023-05-29T07:49:07;5.22;;;2.90;;
38208;SDS011;24016;52.102;11.584;2023-05-29T07:51:33;7.82;;;2.75;;
38208;SDS011;24016;52.102;11.584;2023-05-29T07:53:58;5.45;;;2.40;;
38208;SDS011;24016;52.102;11.584;2023-05-29T07:56:24;4.68;;;2.20;;
38208;SDS011;24016;52.102;11.584;2023-05-29T07:58:50;6.25;;;3.08;;
38208;SDS011;24016;52.102;11.584;2023-05-29T08:01:18;5.07;;;2.40;;
38208;SDS011;24016;52.102;11.584;2023-05-29T08:03:44;7.38;;;2.83;;
38208;SDS011;24016;52.102;11.584;2023-05-29T08:06:09;4.07;;;2.58;;
38208;SDS011;24016;52.102;11.584;2023-05-29T08:08:35;6.10;;;2.72;;
38208;SDS011;24016;52.102;11.584;2023-05-29T08:11:01;6.45;;;2.95;;
38208;SDS011;24016;52.102;11.584;2023-05-29T08:13:26;4.75;;;2.30;;
38208;SDS011;24016;52.102;11.584;2023-05-29T08:15:52;4.53;;;2.60;;
38208;SDS011;24016;52.102;11.584;2023-05-29T08:18:18;4.45;;;2.55;;
38208;SDS011;24016;52.102;11.584;2023-05-29T08:20:43;4.20;;;2.53;;
38208;SDS011;24016;52.102;11.584;2023-05-29T08:23:09;5.20;;;2.20;;
38208;SDS011;24016;52.102;11.584;2023-05-29T08:25:35;4.28;;;2.28;;
38208;SDS011;24016;52.102;11.584;2023-05-29T08:28:01;6.95;;;2.53;;
38208;SDS011;24016;52.102;11.584;2023-05-29T08:30:26;6.43;;;2.50;;
38208;SDS011;24016;52.102;11.584;2023-05-29T08:32:52;5.65;;;2.80;;
38208;SDS011;24016;52.102;11.584;2023-05-29T08:35:17;4.15;;;2.40;;
38208;SDS011;24016;52.102;11.584;2023-05-29T08:37:43;7.25;;;2.33;;
38208;SDS011;24016;52.102;11.584;2023-05-29T08:40:09;5.05;;;2.90;;
38208;SDS011;24016;52.102;11.584;2023-05-29T08:42:36;5.40;;;2.53;;
38208;SDS011;24016;52.102;11.584;2023-05-29T08:45:10;9.00;;;2.53;;
38208;SDS011;24016;52.102;11.584;2023-05-29T08:47:38;6.90;;;2.70;;
38208;SDS011;24016;52.102;11.584;2023-05-29T08:50:06;5.32;;;2.80;;
38208;SDS011;24016;52.102;11.584;2023-05-29T08:52:33;5.30;;;2.60;;
38208;SDS011;24016;52.102;11.584;2023-05-29T08:55:02;4.15;;;2.58;;
38208;SDS011;24016;52.102;11.584;2023-05-29T08:57:28;6.07;;;2.50;;
38208;SDS011;24016;52.102;11.584;2023-05-29T08:59:55;6.70;;;2.65;;
38208;SDS011;24016;52.102;11.584;2023-05-29T09:02:21;5.57;;;2.50;;
38208;SDS011;24016;52.102;11.584;2023-05-29T09:04:47;3.63;;;2.30;;
38208;SDS011;24016;52.102;11.584;2023-05-29T09:07:14;4.25;;;2.38;;
38208;SDS011;24016;52.102;11.584;2023-05-29T09:09:40;5.63;;;2.50;;
38208;SDS011;24016;52.102;11.584;2023-05-29T09:12:07;6.15;;;2.55;;
38208;SDS011;24016;52.102;11.584;2023-05-29T09:14:35;4.22;;;2.35;;
38208;SDS011;24016;52.102;11.584;2023-05-29T09:17:02;4.70;;;2.63;;
38208;SDS011;24016;52.102;11.584;2023-05-29T09:19:28;4.70;;;2.65;;
38208;SDS011;24016;52.102;11.584;2023-05-29T09:22:08;5.78;;;2.55;;
38208;SDS011;24016;52.102;11.584;2023-05-29T09:24:39;7.15;;;2.65;;
38208;SDS011;24016;52.102;11.584;2023-05-29T09:27:05;5.40;;;2.50;;
38208;SDS011;24016;52.102;11.584;2023-05-29T09:29:42;4.80;;;2.25;;
38208;SDS011;24016;52.102;11.584;2023-05-29T09:32:09;5.82;;;2.55;;
38208;SDS011;24016;52.102;11.584;2023-05-29T09:34:41;4.93;;;2.35;;
38208;SDS011;24016;52.102;11.584;2023-05-29T09:37:07;4.60;;;2.20;;
38208;SDS011;24016;52.102;11.584;2023-05-29T09:39:48;4.13;;;2.28;;
38208;SDS011;24016;52.102;11.584;2023-05-29T09:42:16;6.25;;;2.47;;
38208;SDS011;24016;52.102;11.584;2023-05-29T09:44:42;4.85;;;2.60;;
38208;SDS011;24016;52.102;11.584;2023-05-29T09:47:13;4.20;;;2.13;;
38208;SDS011;24016;52.102;11.584;2023-05-29T09:49:43;5.45;;;2.05;;
38208;SDS011;24016;52.102;11.584;2023-05-29T09:52:10;3.42;;;2.17;;
38208;SDS011;24016;52.102;11.584;2023-05-29T09:54:40;4.38;;;2.45;;
38208;SDS011;24016;52.102;11.584;2023-05-29T09:57:07;5.32;;;2.53;;
38208;SDS011;24016;52.102;11.584;2023-05-29T09:59:34;5.65;;;2.55;;
38208;SDS011;24016;52.102;11.584;2023-05-29T10:02:02;5.85;;;2.60;;
38208;SDS011;24016;52.102;11.584;2023-05-29T10:04:31;3.60;;;2.20;;
38208;SDS011;24016;52.102;11.584;2023-05-29T10:06:58;3.80;;;2.10;;
38208;SDS011;24016;52.102;11.584;2023-05-29T10:09:28;5.60;;;2.30;;
38208;SDS011;24016;52.102;11.584;2023-05-29T10:11:54;5.60;;;2.30;;
38208;SDS011;24016;52.102;11.584;2023-05-29T10:14:25;4.10;;;2.08;;
38208;SDS011;24016;52.102;11.584;2023-05-29T10:16:52;7.22;;;2.40;;
38208;SDS011;24016;52.102;11.584;2023-05-29T10:19:24;4.07;;;2.22;;
38208;SDS011;24016;52.102;11.584;2023-05-29T10:21:51;5.10;;;2.50;;
38208;SDS011;24016;52.102;11.584;2023-05-29T10:24:18;4.53;;;2.47;;
38208;SDS011;24016;52.102;11.584;2023-05-29T10:26:47;6.68;;;2.47;;
38208;SDS011;24016;52.102;11.584;2023-05-29T10:29:17;5.40;;;2.33;;
38208;SDS011;24016;52.102;11.584;2023-05-29T10:32:01;5.45;;;2.60;;
38208;SDS011;24016;52.102;11.584;2023-05-29T10:34:52;8.52;;;2.40;;
38208;SDS011;24016;52.102;11.584;2023-05-29T10:39:47;5.97;;;2.40;;
38208;SDS011;24016;52.102;11.584;2023-05-29T10:45:09;3.97;;;2.00;;
38208;SDS011;24016;52.102;11.584;2023-05-29T10:47:38;4.70;;;2.28;;
38208;SDS011;24016;52.102;11.584;2023-05-29T10:50:04;3.67;;;2.13;;
38208;SDS011;24016;52.102;11.584;2023-05-29T10:52:33;4.93;;;2.40;;
38208;SDS011;24016;52.102;11.584;2023-05-29T10:55:00;5.97;;;2.30;;
38208;SDS011;24016;52.102;11.584;2023-05-29T10:57:29;6.45;;;2.60;;
38208;SDS011;24016;52.102;11.584;2023-05-29T11:00:04;6.10;;;2.55;;
38208;SDS011;24016;52.102;11.584;2023-05-29T11:02:31;7.88;;;2.40;;
38208;SDS011;24016;52.102;11.584;2023-05-29T11:05:05;4.50;;;2.15;;
38208;SDS011;24016;52.102;11.584;2023-05-29T11:07:55;5.55;;;2.65;;
38208;SDS011;24016;52.102;11.584;2023-05-29T11:10:41;5.55;;;2.70;;
38208;SDS011;24016;52.102;11.584;2023-05-29T11:13:22;5.03;;;2.40;;
38208;SDS011;24016;52.102;11.584;2023-05-29T11:16:03;7.60;;;2.80;;
38208;SDS011;24016;52.102;11.584;2023-05-29T11:19:03;5.97;;;2.40;;
38208;SDS011;24016;52.102;11.584;2023-05-29T11:21:53;6.47;;;3.13;;
38208;SDS011;24016;52.102;11.584;2023-05-29T11:24:30;5.57;;;2.60;;
38208;SDS011;24016;52.102;11.584;2023-05-29T11:26:56;6.35;;;2.42;;
38208;SDS011;24016;52.102;11.584;2023-05-29T11:29:26;5.43;;;2.85;;
38208;SDS011;24016;52.102;11.584;2023-05-29T11:32:03;6.57;;;2.22;;
38208;SDS011;24016;52.102;11.584;2023-05-29T11:34:30;5.32;;;2.72;;
38208;SDS011;24016;52.102;11.584;2023-05-29T11:36:57;3.72;;;2.00;;
38208;SDS011;24016;52.102;11.584;2023-05-29T11:39:24;5.60;;;2.67;;
38208;SDS011;24016;52.102;11.584;2023-05-29T11:41:50;5.82;;;2.50;;
38208;SDS011;24016;52.102;11.584;2023-05-29T11:44:17;5.30;;;2.40;;
38208;SDS011;24016;52.102;11.584;2023-05-29T11:46:42;5.70;;;2.58;;
38208;SDS011;24016;52.102;11.584;2023-05-29T11:49:08;5.70;;;2.75;;
38208;SDS011;24016;52.102;11.584;2023-05-29T11:51:34;7.93;;;3.10;;
38208;SDS011;24016;52.102;11.584;2023-05-29T11:53:59;8.60;;;2.95;;
38208;SDS011;24016;52.102;11.584;2023-05-29T11:56:26;6.10;;;2.97;;
38208;SDS011;24016;52.102;11.584;2023-05-29T11:58:52;7.60;;;3.25;;
38208;SDS011;24016;52.102;11.584;2023-05-29T12:01:25;7.88;;;3.72;;
38208;SDS011;24016;52.102;11.584;2023-05-29T12:03:52;6.25;;;3.47;;
38208;SDS011;24016;52.102;11.584;2023-05-29T12:06:31;6.40;;;3.67;;
38208;SDS011;24016;52.102;11.584;2023-05-29T12:09:00;7.15;;;3.38;;
38208;SDS011;24016;52.102;11.584;2023-05-29T12:11:27;5.15;;;3.13;;
38208;SDS011;24016;52.102;11.584;2023-05-29T12:14:00;9.70;;;3.40;;
38208;SDS011;24016;52.102;11.584;2023-05-29T12:16:28;8.38;;;5.38;;
38208;SDS011;24016;52.102;11.584;2023-05-29T12:18:56;9.23;;;4.70;;
38208;SDS011;24016;52.102;11.584;2023-05-29T12:21:22;8.68;;;3.25;;
38208;SDS011;24016;52.102;11.584;2023-05-29T12:23:51;5.53;;;2.90;;
38208;SDS011;24016;52.102;11.584;2023-05-29T12:26:17;4.78;;;2.60;;
38208;SDS011;24016;52.102;11.584;2023-05-29T12:28:44;5.75;;;3.08;;
38208;SDS011;24016;52.102;11.584;2023-05-29T12:31:10;6.45;;;3.15;;
38208;SDS011;24016;52.102;11.584;2023-05-29T12:33:36;7.03;;;3.10;;
38208;SDS011;24016;52.102;11.584;2023-05-29T12:36:08;5.22;;;3.20;;
38208;SDS011;24016;52.102;11.584;2023-05-29T12:38:45;5.53;;;3.15;;
38208;SDS011;24016;52.102;11.584;2023-05-29T12:43:48;5.18;;;2.60;;
38208;SDS011;24016;52.102;11.584;2023-05-29T12:46:14;5.90;;;3.08;;
38208;SDS011;24016;52.102;11.584;2023-05-29T12:48:39;5.80;;;2.65;;
38208;SDS011;24016;52.102;11.584;2023-05-29T12:51:05;5.75;;;2.75;;
38208;SDS011;24016;52.102;11.584;2023-05-29T12:53:33;4.82;;;2.50;;
38208;SDS011;24016;52.102;11.584;2023-05-29T12:55:58;5.95;;;2.92;;
38208;SDS011;24016;52.102;11.584;2023-05-29T12:58:24;4.25;;;2.28;;
38208;SDS011;24016;52.102;11.584;2023-05-29T13:00:52;6.75;;;2.65;;
38208;SDS011;24016;52.102;11.584;2023-05-29T13:03:21;4.38;;;2.42;;
38208;SDS011;24016;52.102;11.584;2023-05-29T13:05:48;5.03;;;2.40;;
38208;SDS011;24016;52.102;11.584;2023-05-29T13:08:15;6.65;;;2.60;;
38208;SDS011;24016;52.102;11.584;2023-05-29T13:10:40;5.43;;;2.65;;
38208;SDS011;24016;52.102;11.584;2023-05-29T13:13:06;4.75;;;2.65;;
38208;SDS011;24016;52.102;11.584;2023-05-29T13:15:32;5.47;;;2.70;;
38208;SDS011;24016;52.102;11.584;2023-05-29T13:17:58;4.65;;;2.88;;
38208;SDS011;24016;52.102;11.584;2023-05-29T13:20:24;6.25;;;2.88;;
38208;SDS011;24016;52.102;11.584;2023-05-29T13:22:50;6.78;;;2.90;;
38208;SDS011;24016;52.102;11.584;2023-05-29T13:25:16;6.38;;;3.15;;
38208;SDS011;24016;52.102;11.584;2023-05-29T13:27:45;6.10;;;2.80;;
38208;SDS011;24016;52.102;11.584;2023-05-29T13:30:12;5.07;;;2.95;;
38208;SDS011;24016;52.102;11.584;2023-05-29T13:32:38;6.93;;;3.00;;
38208;SDS011;24016;52.102;11.584;2023-05-29T13:35:04;5.90;;;2.63;;
38208;SDS011;24016;52.102;11.584;2023-05-29T13:37:30;5.55;;;2.65;;
38208;SDS011;24016;52.102;11.584;2023-05-29T13:39:55;5.35;;;2.88;;
38208;SDS011;24016;52.102;11.584;2023-05-29T13:42:21;5.80;;;2.72;;
38208;SDS011;24016;52.102;11.584;2023-05-29T13:44:47;3.95;;;2.38;;
38208;SDS011;24016;52.102;11.584;2023-05-29T13:47:13;6.20;;;2.80;;
38208;SDS011;24016;52.102;11.584;2023-05-29T13:49:39;4.57;;;2.55;;
38208;SDS011;24016;52.102;11.584;2023-05-29T13:52:05;5.00;;;2.65;;
38208;SDS011;24016;52.102;11.584;2023-05-29T13:54:31;5.57;;;2.40;;
38208;SDS011;24016;52.102;11.584;2023-05-29T13:57:03;3.95;;;2.35;;
38208;SDS011;24016;52.102;11.584;2023-05-29T13:59:30;4.35;;;2.47;;
38208;SDS011;24016;52.102;11.584;2023-05-29T14:01:56;5.85;;;2.90;;
38208;SDS011;24016;52.102;11.584;2023-05-29T14:04:22;4.32;;;2.38;;
38208;SDS011;24016;52.102;11.584;2023-05-29T14:06:47;6.32;;;2.50;;
38208;SDS011;24016;52.102;11.584;2023-05-29T14:09:13;7.03;;;2.67;;
38208;SDS011;24016;52.102;11.584;2023-05-29T14:11:39;4.40;;;2.33;;
38208;SDS011;24016;52.102;11.584;2023-05-29T14:14:05;5.65;;;2.50;;
38208;SDS011;24016;52.102;11.584;2023-05-29T14:16:32;6.75;;;2.70;;
38208;SDS011;24016;52.102;11.584;2023-05-29T14:18:58;4.88;;;2.33;;
38208;SDS011;24016;52.102;11.584;2023-05-29T14:21:24;5.38;;;2.10;;
38208;SDS011;24016;52.102;11.584;2023-05-29T14:23:50;4.43;;;2.10;;
38208;SDS011;24016;52.102;11.584;2023-05-29T14:26:15;7.20;;;2.60;;
38208;SDS011;24016;52.102;11.584;2023-05-29T14:28:41;5.50;;;2.67;;
38208;SDS011;24016;52.102;11.584;2023-05-29T14:31:06;5.65;;;2.40;;
38208;SDS011;24016;52.102;11.584;2023-05-29T14:33:32;3.75;;;2.40;;
38208;SDS011;24016;52.102;11.584;2023-05-29T14:35:58;4.82;;;2.70;;
38208;SDS011;24016;52.102;11.584;2023-05-29T14:38:24;7.03;;;2.70;;
38208;SDS011;24016;52.102;11.584;2023-05-29T14:40:50;5.57;;;2.60;;
38208;SDS011;24016;52.102;11.584;2023-05-29T14:43:16;4.95;;;2.58;;
38208;SDS011;24016;52.102;11.584;2023-05-29T14:45:42;4.45;;;2.40;;
38208;SDS011;24016;52.102;11.584;2023-05-29T14:48:07;4.85;;;2.28;;
38208;SDS011;24016;52.102;11.584;2023-05-29T14:50:33;5.25;;;2.15;;
38208;SDS011;24016;52.102;11.584;2023-05-29T14:52:58;4.25;;;2.33;;
38208;SDS011;24016;52.102;11.584;2023-05-29T14:55:24;7.15;;;2.35;;
38208;SDS011;24016;52.102;11.584;2023-05-29T14:57:50;6.65;;;2.83;;
38208;SDS011;24016;52.102;11.584;2023-05-29T15:00:16;5.72;;;2.40;;